Time;durP1;ratioP1;P1;durP2;ratioP2;P2;SDS_P1;SDS_P2;PMS_P1;PMS_P2;Temp;Humidity;BMP_temperature;BMP_pressure;BME280_temperature;BME280_humidity;BME280_pressure;Samples;Min_cycle;Max_cycle;Signal;HPM_P1;HPM_P2
2023/07/17 00:01:35;;;;;;;4.45;3.88;;;24.70;50.60;25.70;100768.00;;;;6271320;22;20196;-55
2023/07/17 00:04:01;;;;;;;4.28;3.80;;;24.70;50.90;25.70;100762.00;;;;6270323;22;20145;-55
2023/07/17 00:06:27;;;;;;;4.72;4.10;;;24.60;51.20;25.70;100774.00;;;;6270097;22;20271;-55
2023/07/17 00:08:52;;;;;;;4.57;3.85;;;24.60;51.70;25.70;100787.00;;;;6270354;22;20172;-55
2023/07/17 00:11:18;;;;;;;3.50;3.20;;;24.50;51.70;25.70;100792.00;;;;6270305;22;20145;-54
2023/07/17 00:13:44;;;;;;;3.88;3.47;;;24.60;51.60;25.60;100802.00;;;;6270466;22;20145;-55
2023/07/17 00:16:09;;;;;;;4.28;3.88;;;24.60;51.20;25.60;100793.00;;;;6269897;22;20218;-55
2023/07/17 00:18:35;;;;;;;4.50;3.60;;;24.60;51.10;25.60;100805.00;;;;6270228;22;20145;-55
2023/07/17 00:21:02;;;;;;;5.47;4.00;;;24.60;51.10;25.40;100816.00;;;;6270589;22;20236;-54
2023/07/17 00:23:27;;;;;;;3.90;3.60;;;24.60;51.60;25.60;100809.00;;;;6268636;22;20589;-55
2023/07/17 00:25:53;;;;;;;3.80;3.50;;;24.60;51.40;25.60;100798.00;;;;6270091;22;20219;-55
2023/07/17 00:28:19;;;;;;;3.67;3.38;;;24.60;51.20;25.50;100797.00;;;;6270381;22;20176;-55
2023/07/17 00:30:45;;;;;;;5.05;3.85;;;24.60;51.50;25.50;100795.00;;;;6270800;22;20144;-56
2023/07/17 00:33:11;;;;;;;4.63;3.55;;;24.60;51.80;25.50;100785.00;;;;6270738;22;20145;-55
2023/07/17 00:35:37;;;;;;;4.28;3.67;;;24.60;51.80;25.50;100790.00;;;;6270520;22;20151;-55
2023/07/17 00:38:03;;;;;;;3.95;3.65;;;24.60;51.80;25.40;100801.00;;;;6270899;22;20230;-55
2023/07/17 00:40:29;;;;;;;4.20;3.78;;;24.60;51.80;25.40;100796.00;;;;6270949;22;20149;-55
2023/07/17 00:43:01;;;;;;;4.22;3.83;;;24.60;51.70;25.40;100799.00;;;;6270938;22;20148;-55
2023/07/17 00:45:31;;;;;;;4.00;3.60;;;24.60;51.80;25.40;100809.00;;;;6277733;22;20153;-55
2023/07/17 00:47:57;;;;;;;4.35;3.88;;;24.30;52.20;25.40;100805.00;;;;6273019;22;20177;-55
2023/07/17 00:50:23;;;;;;;4.82;4.07;;;24.20;52.50;25.40;100826.00;;;;6268710;22;20145;-55
2023/07/17 00:52:49;;;;;;;5.38;3.63;;;24.10;52.70;25.30;100833.00;;;;6268780;22;20141;-55
2023/07/17 00:55:15;;;;;;;4.57;3.63;;;23.80;53.30;25.30;100816.00;;;;6269970;22;20145;-55
2023/07/17 00:57:40;;;;;;;4.57;3.80;;;24.00;53.50;25.30;100810.00;;;;6243708;22;20164;-55
2023/07/17 01:00:08;;;;;;;4.28;3.75;;;24.10;52.70;25.20;100827.00;;;;6274904;22;20149;-56
2023/07/17 01:02:37;;;;;;;5.45;4.00;;;24.30;52.60;25.20;100838.00;;;;6276795;22;20153;-55
2023/07/17 01:05:03;;;;;;;4.53;3.75;;;24.30;52.50;25.20;100830.00;;;;6243817;22;20176;-55
2023/07/17 01:07:29;;;;;;;3.90;3.60;;;24.10;52.60;25.20;100839.00;;;;6270016;22;20177;-55
2023/07/17 01:09:55;;;;;;;4.57;3.92;;;24.10;52.80;25.20;100844.00;;;;6270319;22;20170;-55
2023/07/17 01:12:21;;;;;;;3.92;3.53;;;24.00;53.10;25.20;100864.00;;;;6270329;22;20555;-54
2023/07/17 01:14:47;;;;;;;5.65;3.92;;;23.80;53.40;25.10;100858.00;;;;6270035;22;20141;-55
2023/07/17 01:17:12;;;;;;;5.25;3.90;;;23.60;54.00;25.00;100869.00;;;;6268465;22;20180;-55
2023/07/17 01:19:38;;;;;;;4.50;3.70;;;23.40;55.10;24.90;100810.00;;;;6270261;22;20145;-56
2023/07/17 01:22:28;;;;;;;4.13;3.70;;;22.90;55.50;24.80;100870.00;;;;6270294;22;20597;-57
2023/07/17 01:24:54;;;;;;;5.80;3.87;;;23.20;55.00;24.70;100863.00;;;;6268448;22;20137;-54
2023/07/17 01:27:20;;;;;;;3.80;3.40;;;23.20;55.40;24.60;100869.00;;;;6269937;22;20169;-53
2023/07/17 01:29:45;;;;;;;4.27;3.47;;;23.60;54.60;24.60;100863.00;;;;6270175;22;20148;-54
2023/07/17 01:32:11;;;;;;;4.17;3.40;;;23.80;54.10;24.60;100870.00;;;;6270199;22;20156;-54
2023/07/17 01:34:38;;;;;;;3.83;3.00;;;23.80;53.60;24.60;100863.00;;;;6271303;22;20149;-54
2023/07/17 01:37:05;;;;;;;4.43;3.67;;;23.90;53.40;24.60;100857.00;;;;6271815;22;20247;-54
2023/07/17 01:39:31;;;;;;;4.03;3.30;;;24.00;53.50;24.60;100856.00;;;;6271780;22;20145;-54
2023/07/17 01:41:56;;;;;;;4.90;3.20;;;24.00;53.10;24.60;100855.00;;;;6244685;22;20287;-54
2023/07/17 01:44:27;;;;;;;3.47;3.17;;;24.00;53.00;24.60;100859.00;;;;6271858;22;20152;-54
2023/07/17 01:46:56;;;;;;;4.40;4.00;;;24.00;52.90;24.60;100863.00;;;;6272125;22;20208;-54
2023/07/17 01:49:22;;;;;;;4.00;3.07;;;24.00;52.90;24.60;100873.00;;;;6271812;22;20169;-54
2023/07/17 01:51:48;;;;;;;3.80;2.87;;;24.10;52.90;24.60;100872.00;;;;6272150;22;20161;-54
2023/07/17 01:54:13;;;;;;;3.27;2.90;;;24.00;52.60;24.50;100879.00;;;;6271716;22;20172;-54
2023/07/17 01:56:39;;;;;;;3.90;2.90;;;24.00;52.60;24.50;100874.00;;;;6271337;22;20165;-54
2023/07/17 01:59:05;;;;;;;3.33;3.03;;;24.00;52.60;24.50;100875.00;;;;6270134;22;20609;-54
2023/07/17 02:01:32;;;;;;;3.30;2.97;;;23.90;52.50;24.50;100874.00;;;;6272151;22;20206;-54
2023/07/17 02:03:58;;;;;;;3.33;2.80;;;23.90;52.50;24.40;100866.00;;;;6271344;22;20198;-54
2023/07/17 02:06:24;;;;;;;3.70;2.70;;;23.90;52.50;24.40;100867.00;;;;6271198;22;20208;-54
2023/07/17 02:08:50;;;;;;;4.53;3.30;;;23.90;52.50;24.40;100874.00;;;;6271417;22;20250;-53
2023/07/17 02:11:15;;;;;;;4.20;2.90;;;23.90;52.60;24.10;100865.00;;;;6271427;22;20228;-54
2023/07/17 02:13:41;;;;;;;3.53;2.90;;;23.80;52.60;24.40;100874.00;;;;6271420;22;20145;-54
2023/07/17 02:16:07;;;;;;;3.27;2.83;;;23.80;52.70;24.30;100864.00;;;;6270981;22;20173;-54
2023/07/17 02:18:32;;;;;;;3.00;2.70;;;23.70;52.70;24.30;100856.00;;;;6271542;22;20202;-54
2023/07/17 02:20:58;;;;;;;3.67;3.00;;;23.70;52.80;24.20;100867.00;;;;6271923;22;20148;-55
2023/07/17 02:23:25;;;;;;;3.23;2.93;;;23.60;52.80;24.20;100867.00;;;;6272059;22;20172;-54
2023/07/17 02:25:51;;;;;;;3.67;2.67;;;23.60;53.10;24.20;100871.00;;;;6271461;22;20204;-54
2023/07/17 02:28:16;;;;;;;3.00;2.70;;;23.60;53.20;24.10;100866.00;;;;6269776;22;20169;-54
2023/07/17 02:30:42;;;;;;;3.57;3.00;;;23.60;53.20;24.10;100882.00;;;;6269669;22;20145;-52
2023/07/17 02:33:08;;;;;;;3.30;2.83;;;23.50;53.00;24.10;100879.00;;;;6271177;22;20196;-54
2023/07/17 02:35:33;;;;;;;3.67;2.90;;;23.60;53.20;24.10;100883.00;;;;6270922;22;20160;-54
2023/07/17 02:37:59;;;;;;;3.47;3.00;;;23.50;53.10;24.00;100890.00;;;;6271385;22;20149;-54
2023/07/17 02:40:25;;;;;;;3.23;2.90;;;23.50;53.20;24.00;100879.00;;;;6271184;22;20253;-54
2023/07/17 02:42:51;;;;;;;3.20;2.83;;;23.40;53.30;24.00;100880.00;;;;6271447;22;20156;-54
2023/07/17 02:45:16;;;;;;;3.13;2.80;;;23.40;53.40;23.90;100879.00;;;;6270695;22;20597;-54
2023/07/17 02:47:42;;;;;;;3.80;2.90;;;23.40;53.40;23.90;100869.00;;;;6272801;22;20177;-53
2023/07/17 02:50:08;;;;;;;3.00;2.70;;;23.50;53.60;23.90;100877.00;;;;6282787;22;20145;-53
2023/07/17 02:52:35;;;;;;;3.67;3.07;;;23.40;53.40;23.90;100876.00;;;;6271959;22;20187;-54
2023/07/17 02:55:04;;;;;;;2.87;2.63;;;23.40;53.50;23.90;100882.00;;;;6271695;22;20141;-54
2023/07/17 02:57:34;;;;;;;3.27;2.73;;;23.30;53.70;23.90;100886.00;;;;6271469;22;20165;-54
2023/07/17 03:00:25;;;;;;;3.90;3.00;;;23.30;53.70;23.80;100866.00;;;;6270265;22;20133;-54
2023/07/17 03:02:51;;;;;;;4.60;2.93;;;23.30;53.70;23.80;100871.00;;;;6276637;22;20157;-53
2023/07/17 03:05:17;;;;;;;3.07;2.77;;;23.30;53.80;23.80;100876.00;;;;6282982;22;20145;-54
2023/07/17 03:07:44;;;;;;;3.10;2.60;;;23.30;53.90;23.80;100884.00;;;;6272916;22;20228;-53
2023/07/17 03:10:10;;;;;;;3.20;2.90;;;23.20;53.80;23.70;100893.00;;;;6272744;22;20173;-53
2023/07/17 03:12:36;;;;;;;4.03;2.63;;;23.20;53.80;23.70;100895.00;;;;6272923;22;20148;-54
2023/07/17 03:15:04;;;;;;;3.60;2.97;;;23.20;53.70;23.70;100898.00;;;;6272623;22;20142;-54
2023/07/17 03:17:30;;;;;;;3.77;2.80;;;23.10;53.90;23.70;100899.00;;;;6272671;22;20637;-53
2023/07/17 03:19:56;;;;;;;3.53;2.97;;;23.10;54.00;23.60;100894.00;;;;6271797;22;20149;-53
2023/07/17 03:22:22;;;;;;;4.43;2.90;;;23.00;54.10;23.60;100888.00;;;;6273196;22;20585;-53
2023/07/17 03:24:48;;;;;;;3.07;2.60;;;23.00;54.10;23.60;100888.00;;;;6272830;22;20145;-53
2023/07/17 03:27:14;;;;;;;4.10;2.93;;;23.00;54.20;23.60;100884.00;;;;6272678;22;20164;-54
2023/07/17 03:29:39;;;;;;;4.63;3.10;;;23.10;54.20;23.60;100892.00;;;;6273134;22;20620;-53
2023/07/17 03:32:06;;;;;;;4.60;2.70;;;23.10;54.50;23.60;100881.00;;;;6272273;22;20659;-53
2023/07/17 03:34:32;;;;;;;3.70;2.80;;;23.10;54.20;23.60;100878.00;;;;6272795;22;20172;-53
2023/07/17 03:36:58;;;;;;;3.63;2.83;;;23.20;54.10;23.60;100880.00;;;;6271884;22;20505;-53
2023/07/17 03:39:23;;;;;;;4.27;3.17;;;23.10;54.10;23.60;100883.00;;;;6272421;22;20145;-53
2023/07/17 03:41:49;;;;;;;4.93;3.00;;;23.00;54.10;23.50;100880.00;;;;6272314;22;20145;-52
2023/07/17 03:44:15;;;;;;;3.20;2.90;;;23.00;54.10;23.50;100878.00;;;;6272186;22;20167;-54
2023/07/17 03:46:40;;;;;;;2.80;2.60;;;23.00;54.30;23.50;100894.00;;;;6267015;22;20214;-52
2023/07/17 03:49:06;;;;;;;3.70;2.73;;;22.90;54.20;23.50;100895.00;;;;6271761;22;20230;-53
2023/07/17 03:51:32;;;;;;;3.30;2.90;;;23.00;54.30;23.40;100891.00;;;;6272146;22;20145;-53
2023/07/17 03:53:58;;;;;;;3.70;2.93;;;22.90;54.50;23.40;100900.00;;;;6272157;22;20529;-52
2023/07/17 03:56:23;;;;;;;3.13;2.83;;;22.90;54.50;23.40;100901.00;;;;6271273;22;20172;-53
2023/07/17 03:58:49;;;;;;;3.10;2.80;;;22.90;54.60;23.40;100900.00;;;;6271996;22;20238;-53
2023/07/17 04:01:15;;;;;;;3.10;2.73;;;22.80;54.60;23.30;100909.00;;;;6269400;22;20336;-53
2023/07/17 04:03:41;;;;;;;3.20;2.80;;;22.80;54.70;23.30;100913.00;;;;6272117;22;20159;-54
2023/07/17 04:06:08;;;;;;;3.03;2.73;;;22.80;54.70;23.30;100913.00;;;;6270689;22;20188;-53
2023/07/17 04:08:33;;;;;;;3.03;2.73;;;22.80;54.60;23.40;100920.00;;;;6272396;22;20191;-53
2023/07/17 04:10:59;;;;;;;2.97;2.77;;;22.80;54.60;23.30;100911.00;;;;6271936;22;20653;-53
2023/07/17 04:13:25;;;;;;;4.03;2.80;;;22.80;54.60;23.40;100913.00;;;;6271908;22;20146;-53
2023/07/17 04:15:51;;;;;;;4.10;2.80;;;22.80;54.50;23.40;100924.00;;;;6269806;22;20165;-53
2023/07/17 04:18:16;;;;;;;3.10;2.70;;;22.90;54.60;23.40;100927.00;;;;6271886;22;20133;-53
2023/07/17 04:20:42;;;;;;;4.30;3.00;;;22.80;54.50;23.30;100922.00;;;;6271675;22;20149;-53
2023/07/17 04:23:08;;;;;;;2.97;2.70;;;22.90;54.70;23.30;100915.00;;;;6270652;22;20167;-53
2023/07/17 04:25:39;;;;;;;3.33;2.90;;;22.80;54.70;23.30;100924.00;;;;6269666;22;20634;-54
2023/07/17 04:28:05;;;;;;;3.17;2.87;;;22.80;54.80;23.30;100919.00;;;;6271532;22;20195;-54
2023/07/17 04:30:30;;;;;;;3.90;2.80;;;22.80;54.60;23.10;100930.00;;;;6270650;22;20168;-53
2023/07/17 04:32:58;;;;;;;3.00;2.70;;;22.80;54.50;23.30;100919.00;;;;6271290;22;20616;-53
2023/07/17 04:35:23;;;;;;;3.03;2.60;;;22.80;54.50;23.10;100933.00;;;;6270008;22;20149;-54
2023/07/17 04:37:50;;;;;;;3.37;2.70;;;22.80;54.30;23.30;100942.00;;;;6270035;22;20294;-54
2023/07/17 04:40:16;;;;;;;3.67;2.90;;;22.80;54.30;23.30;100935.00;;;;6271597;22;20602;-53
2023/07/17 04:42:42;;;;;;;4.87;3.00;;;22.90;54.30;23.30;100940.00;;;;6271887;22;20149;-53
2023/07/17 04:45:08;;;;;;;4.60;4.07;;;22.90;54.20;23.30;100933.00;;;;6270339;22;20207;-53
2023/07/17 04:47:34;;;;;;;6.73;6.10;;;22.90;54.30;23.30;100935.00;;;;6270810;22;20660;-54
2023/07/17 04:49:59;;;;;;;4.30;3.90;;;22.90;54.40;23.30;100943.00;;;;6273327;22;20149;-53
2023/07/17 04:52:25;;;;;;;3.73;3.30;;;22.90;54.50;23.30;100947.00;;;;6278463;22;20145;-54
2023/07/17 04:54:51;;;;;;;4.03;3.50;;;22.90;54.70;23.30;100957.00;;;;6272313;22;20152;-53
2023/07/17 04:57:16;;;;;;;3.57;3.03;;;22.80;54.60;23.30;100958.00;;;;6270142;22;20176;-55
2023/07/17 04:59:42;;;;;;;4.10;3.00;;;22.80;54.70;23.30;100952.00;;;;6271593;22;20598;-53
2023/07/17 05:02:08;;;;;;;4.80;3.60;;;22.80;54.90;23.30;100961.00;;;;6271772;22;20146;-53
2023/07/17 05:04:34;;;;;;;3.73;3.23;;;22.80;55.10;23.30;100960.00;;;;6280049;22;20183;-53
2023/07/17 05:07:00;;;;;;;3.43;3.00;;;22.80;55.10;23.20;100960.00;;;;6280798;22;20176;-54
2023/07/17 05:09:25;;;;;;;3.33;2.93;;;22.70;55.10;23.20;100963.00;;;;6274043;22;20233;-54
2023/07/17 05:11:51;;;;;;;5.70;3.10;;;22.70;55.20;23.10;100963.00;;;;6273547;22;20152;-53
2023/07/17 05:14:17;;;;;;;5.03;3.10;;;22.60;55.30;23.10;100969.00;;;;6272448;22;20153;-53
2023/07/17 05:16:44;;;;;;;3.33;3.03;;;22.60;55.30;23.10;100970.00;;;;6270016;22;20183;-53
2023/07/17 05:19:09;;;;;;;4.17;3.03;;;22.60;55.30;23.00;100976.00;;;;6273113;22;20145;-55
2023/07/17 05:21:35;;;;;;;3.57;3.03;;;22.50;55.30;23.00;100966.00;;;;6273168;22;20195;-53
2023/07/17 05:24:01;;;;;;;4.47;3.10;;;22.50;55.50;23.00;100979.00;;;;6273798;22;20206;-54
2023/07/17 05:26:27;;;;;;;3.07;2.77;;;22.50;55.50;23.00;100970.00;;;;6272022;22;20195;-54
2023/07/17 05:28:52;;;;;;;3.73;3.00;;;22.50;55.60;22.90;100985.00;;;;6272412;22;20172;-52
2023/07/17 05:31:18;;;;;;;3.77;2.80;;;22.50;55.60;22.90;100967.00;;;;6271481;22;20152;-53
2023/07/17 05:33:44;;;;;;;3.50;2.77;;;22.50;55.60;22.90;100977.00;;;;6273490;22;20169;-53
2023/07/17 05:36:10;;;;;;;3.83;3.00;;;22.50;55.70;22.90;100985.00;;;;6271527;22;20621;-55
2023/07/17 05:38:35;;;;;;;4.27;3.30;;;22.40;55.70;22.90;100971.00;;;;6273380;22;20153;-55
2023/07/17 05:41:02;;;;;;;3.40;2.90;;;22.40;55.80;22.80;100977.00;;;;6273426;22;20149;-54
2023/07/17 05:43:30;;;;;;;3.90;2.80;;;22.40;55.90;22.80;100988.00;;;;6271385;22;20586;-53
2023/07/17 05:45:56;;;;;;;3.47;2.90;;;22.30;55.80;22.80;100976.00;;;;6271515;22;20217;-54
2023/07/17 05:48:22;;;;;;;3.10;2.80;;;22.30;55.60;22.80;100988.00;;;;6273298;22;20207;-55
2023/07/17 05:50:47;;;;;;;3.40;3.00;;;22.30;55.80;22.80;100991.00;;;;6271710;22;20220;-54
2023/07/17 05:53:13;;;;;;;3.20;2.90;;;22.30;55.50;22.70;101006.00;;;;6273127;22;20206;-54
2023/07/17 05:55:39;;;;;;;3.33;3.00;;;22.30;55.80;22.70;101003.00;;;;6271517;22;20145;-53
2023/07/17 05:58:04;;;;;;;3.50;3.20;;;22.30;55.30;22.70;101000.00;;;;6273018;22;20153;-53
2023/07/17 06:00:30;;;;;;;4.33;3.70;;;22.30;54.70;22.70;101001.00;;;;6272682;22;20218;-55
2023/07/17 06:02:56;;;;;;;4.17;3.50;;;22.20;54.60;22.70;101020.00;;;;6272771;22;20294;-53
2023/07/17 06:05:22;;;;;;;5.23;3.70;;;22.20;54.40;22.70;101016.00;;;;6270683;22;20655;-53
2023/07/17 06:07:47;;;;;;;4.10;3.70;;;22.20;54.40;22.60;101014.00;;;;6272519;22;20219;-53
2023/07/17 06:10:13;;;;;;;5.10;4.00;;;22.20;53.80;22.60;101028.00;;;;6272781;22;20156;-53
2023/07/17 06:12:40;;;;;;;4.13;3.73;;;22.10;53.90;22.60;101022.00;;;;6272368;22;20182;-54
2023/07/17 06:15:06;;;;;;;4.40;3.80;;;22.10;53.70;22.60;101029.00;;;;6271315;22;20145;-54
2023/07/17 06:17:32;;;;;;;4.83;3.77;;;22.10;54.40;22.60;101026.00;;;;6272452;22;20184;-63
2023/07/17 06:19:58;;;;;;;5.43;4.20;;;22.10;53.60;22.60;101031.00;;;;6272373;22;20608;-63
2023/07/17 06:22:24;;;;;;;5.10;3.90;;;22.10;53.70;22.60;101042.00;;;;6272903;22;20145;-63
2023/07/17 06:24:50;;;;;;;5.43;4.33;;;22.10;53.40;22.50;101042.00;;;;6270739;22;20161;-63
2023/07/17 06:27:16;;;;;;;4.97;3.70;;;22.10;53.50;22.50;101038.00;;;;6270335;22;20165;-63
2023/07/17 06:29:41;;;;;;;5.80;4.30;;;22.00;53.30;22.50;101037.00;;;;6272331;22;20506;-62
2023/07/17 06:32:07;;;;;;;5.43;3.97;;;22.00;53.40;22.50;101037.00;;;;6272429;22;20141;-63
2023/07/17 06:34:33;;;;;;;6.27;4.50;;;22.00;53.50;22.50;101050.00;;;;6272556;22;20149;-63
2023/07/17 06:37:00;;;;;;;4.83;4.33;;;22.00;53.50;22.50;101046.00;;;;6270967;22;20252;-63
2023/07/17 06:39:26;;;;;;;5.47;4.27;;;22.00;53.40;22.50;101050.00;;;;6272390;22;20627;-63
2023/07/17 06:41:52;;;;;;;6.60;4.40;;;22.00;53.50;22.50;101062.00;;;;6272647;22;20210;-63
2023/07/17 06:44:18;;;;;;;5.17;4.10;;;22.00;53.60;22.50;101057.00;;;;6272345;22;20153;-66
2023/07/17 06:46:44;;;;;;;5.20;3.83;;;22.00;53.60;22.50;101057.00;;;;6269726;22;20180;-64
2023/07/17 06:49:09;;;;;;;5.67;4.43;;;22.00;53.60;22.40;101051.00;;;;6274273;22;20169;-64
2023/07/17 06:51:35;;;;;;;6.10;4.30;;;21.90;53.50;22.40;101058.00;;;;6288321;22;20149;-64
2023/07/17 06:54:01;;;;;;;4.60;4.07;;;21.90;53.70;22.40;101059.00;;;;6273209;22;20145;-64
2023/07/17 06:56:27;;;;;;;5.53;4.30;;;21.90;53.70;22.40;101061.00;;;;6271888;22;20538;-64
2023/07/17 06:58:53;;;;;;;4.73;3.97;;;21.90;53.80;22.40;101055.00;;;;6271634;22;20179;-64
2023/07/17 07:01:18;;;;;;;5.63;4.03;;;21.90;53.80;22.40;101055.00;;;;6271581;22;20149;-64
2023/07/17 07:03:44;;;;;;;6.10;4.00;;;21.90;53.70;22.40;100987.00;;;;6273759;22;20156;-64
2023/07/17 07:06:10;;;;;;;6.17;4.33;;;21.90;53.70;22.40;101061.00;;;;6279844;22;20176;-63
2023/07/17 07:08:35;;;;;;;4.97;4.20;;;21.90;53.90;22.40;101063.00;;;;6271156;22;20173;-63
2023/07/17 07:11:02;;;;;;;5.97;4.53;;;21.90;53.80;22.30;101060.00;;;;6272768;22;20577;-64
2023/07/17 07:13:29;;;;;;;7.30;5.17;;;21.90;53.80;22.40;101077.00;;;;6271804;22;20238;-66
2023/07/17 07:15:54;;;;;;;5.20;4.40;;;21.90;53.60;22.40;101067.00;;;;6271456;22;20165;-63
2023/07/17 07:18:20;;;;;;;6.80;4.60;;;21.90;53.50;22.30;101067.00;;;;6272890;22;20134;-63
2023/07/17 07:20:47;;;;;;;5.37;4.63;;;21.90;53.50;22.30;101062.00;;;;6272184;22;20466;-63
2023/07/17 07:23:13;;;;;;;5.33;4.43;;;21.90;53.50;22.30;101072.00;;;;6271097;22;20156;-64
2023/07/17 07:25:39;;;;;;;5.53;4.37;;;21.80;53.50;22.30;101070.00;;;;6270718;22;20153;-64
2023/07/17 07:28:05;;;;;;;4.87;4.23;;;21.80;53.40;22.30;101072.00;;;;6272622;22;20179;-64
2023/07/17 07:30:30;;;;;;;5.20;4.70;;;21.80;53.60;22.30;101078.00;;;;6271852;22;20157;-62
2023/07/17 07:32:56;;;;;;;5.47;4.67;;;21.80;53.60;22.00;101082.00;;;;6272182;22;20176;-63
2023/07/17 07:35:22;;;;;;;5.50;4.47;;;21.80;53.50;22.30;101071.00;;;;6269661;22;20657;-63
2023/07/17 07:37:48;;;;;;;6.10;4.70;;;21.80;53.60;22.30;101074.00;;;;6272558;22;20169;-63
2023/07/17 07:40:14;;;;;;;5.10;4.60;;;21.80;53.70;22.30;101072.00;;;;6271849;22;20289;-63
2023/07/17 07:42:41;;;;;;;6.53;4.57;;;21.80;53.70;22.30;101069.00;;;;6272399;22;20156;-63
2023/07/17 07:45:07;;;;;;;6.03;4.97;;;21.80;53.70;22.30;101068.00;;;;6270746;22;20156;-64
2023/07/17 07:47:33;;;;;;;6.10;5.00;;;21.80;53.20;22.30;101071.00;;;;6271611;22;20169;-63
2023/07/17 07:50:02;;;;;;;6.43;4.90;;;21.80;53.10;22.30;101074.00;;;;6269887;22;20664;-64
2023/07/17 07:52:27;;;;;;;6.90;5.00;;;21.80;53.40;22.30;101079.00;;;;6269560;22;20225;-64
2023/07/17 07:54:53;;;;;;;6.00;4.67;;;21.80;52.60;22.30;101083.00;;;;6267652;22;20215;-64
2023/07/17 07:57:19;;;;;;;5.63;4.37;;;21.80;52.30;22.30;101076.00;;;;6272246;22;20169;-63
2023/07/17 07:59:45;;;;;;;4.80;4.33;;;21.80;52.30;22.20;101076.00;;;;6272731;22;20148;-64
2023/07/17 08:02:11;;;;;;;5.40;4.50;;;21.80;53.00;22.20;101075.00;;;;6272734;22;20156;-64
2023/07/17 08:04:36;;;;;;;5.00;4.50;;;21.80;52.30;22.20;101082.00;;;;6270383;22;20149;-63
2023/07/17 08:07:03;;;;;;;5.67;4.60;;;21.80;52.20;22.20;101091.00;;;;6271833;22;20219;-63
2023/07/17 08:09:29;;;;;;;5.03;4.53;;;21.70;52.10;22.20;101075.00;;;;6271092;22;20177;-64
2023/07/17 08:11:55;;;;;;;6.07;4.80;;;21.80;52.30;22.20;101090.00;;;;6270477;22;20171;-63
2023/07/17 08:14:23;;;;;;;5.70;4.93;;;21.80;52.10;22.20;101087.00;;;;6271922;22;20610;-64
2023/07/17 08:16:49;;;;;;;5.73;4.83;;;21.80;52.10;22.20;101092.00;;;;6269453;22;20180;-62
2023/07/17 08:19:16;;;;;;;5.70;4.90;;;21.80;51.90;22.20;101090.00;;;;6270401;22;20180;-64
2023/07/17 08:21:42;;;;;;;4.60;4.20;;;21.80;51.70;22.20;101085.00;;;;6272554;22;20155;-62
2023/07/17 08:24:12;;;;;;;8.00;4.70;;;21.80;51.70;22.20;101090.00;;;;6272068;22;20247;-64
2023/07/17 08:26:40;;;;;;;5.67;4.87;;;21.80;51.70;22.20;101082.00;;;;6271085;22;20414;-63
2023/07/17 08:29:07;;;;;;;5.93;5.00;;;21.80;51.70;22.30;101085.00;;;;6274651;22;20223;-62
2023/07/17 08:31:33;;;;;;;5.60;4.97;;;21.80;51.70;22.30;101083.00;;;;6275964;22;20155;-64
2023/07/17 08:34:03;;;;;;;6.93;5.10;;;21.70;51.60;22.30;101082.00;;;;6273085;22;20145;-64
2023/07/17 08:36:29;;;;;;;5.07;4.57;;;21.80;51.60;22.20;101101.00;;;;6271298;22;20243;-63
2023/07/17 08:38:55;;;;;;;6.03;4.57;;;21.70;51.50;22.30;101058.00;;;;6266270;22;20757;-62
2023/07/17 08:41:24;;;;;;;5.73;4.60;;;21.70;51.60;22.20;101088.00;;;;6271735;22;20145;-62
2023/07/17 08:43:49;;;;;;;5.40;4.70;;;21.70;51.60;22.20;101083.00;;;;6271022;22;20149;-57
2023/07/17 08:46:15;;;;;;;6.20;4.40;;;21.70;51.80;22.20;101084.00;;;;6271312;22;20647;-59
2023/07/17 08:48:43;;;;;;;7.60;4.90;;;21.70;51.90;22.30;101091.00;;;;6244616;22;20173;-60
2023/07/17 08:51:12;;;;;;;6.50;5.20;;;21.70;51.90;22.30;101092.00;;;;6277562;22;20175;-54
2023/07/17 08:53:40;;;;;;;7.77;4.73;;;21.80;52.10;22.40;101100.00;;;;6273492;22;20510;-61
2023/07/17 08:56:07;;;;;;;6.17;4.40;;;21.80;52.40;22.40;101089.00;;;;6270508;22;20168;-62
2023/07/17 08:58:32;;;;;;;5.63;4.80;;;21.80;52.30;22.50;101100.00;;;;6269816;22;20145;-59
2023/07/17 09:00:58;;;;;;;7.17;4.57;;;21.90;52.60;22.50;101083.00;;;;6269994;22;20152;-60
2023/07/17 09:03:24;;;;;;;6.93;4.40;;;21.90;52.40;22.50;101088.00;;;;6244064;22;20156;-60
2023/07/17 09:05:50;;;;;;;6.97;4.37;;;22.00;52.60;22.60;101090.00;;;;6249860;22;20172;-60
2023/07/17 09:08:16;;;;;;;7.97;4.70;;;21.90;52.60;22.60;101096.00;;;;6273112;22;20226;-57
2023/07/17 09:10:42;;;;;;;8.23;4.80;;;22.00;53.40;22.60;101101.00;;;;6271802;22;20183;-56
2023/07/17 09:13:08;;;;;;;7.53;4.43;;;22.00;53.20;22.70;101089.00;;;;6271619;22;20516;-57
2023/07/17 09:15:34;;;;;;;4.93;3.73;;;22.00;53.20;22.70;101094.00;;;;6269931;22;20150;-57
2023/07/17 09:18:00;;;;;;;5.73;4.40;;;22.10;53.30;22.80;101092.00;;;;6271548;22;20172;-56
2023/07/17 09:20:26;;;;;;;4.83;4.37;;;22.10;53.30;22.80;101096.00;;;;6271277;22;20153;-58
2023/07/17 09:22:59;;;;;;;4.73;4.23;;;22.10;53.40;22.80;101102.00;;;;6271172;22;20163;-56
2023/07/17 09:25:29;;;;;;;5.67;3.70;;;22.10;53.50;22.90;101101.00;;;;6268159;22;20462;-55
2023/07/17 09:27:55;;;;;;;6.53;4.13;;;22.10;53.60;22.90;101106.00;;;;6270966;22;20172;-56
2023/07/17 09:30:23;;;;;;;4.40;4.00;;;22.10;53.80;22.90;101108.00;;;;6271274;22;20169;-58
2023/07/17 09:32:50;;;;;;;5.87;4.13;;;22.10;54.30;22.90;101108.00;;;;6270198;22;20592;-61
2023/07/17 09:35:19;;;;;;;5.47;4.20;;;22.20;54.20;23.00;101096.00;;;;6242488;22;20146;-60
2023/07/17 09:37:45;;;;;;;4.47;4.07;;;22.20;54.00;23.00;101108.00;;;;6270332;22;20175;-60
2023/07/17 09:40:12;;;;;;;5.53;4.13;;;22.20;54.00;23.00;101094.00;;;;6268475;22;20179;-56
2023/07/17 09:42:42;;;;;;;4.87;4.27;;;22.20;54.20;23.00;101094.00;;;;6271338;22;20211;-56
2023/07/17 09:45:08;;;;;;;5.53;3.80;;;22.30;54.30;23.00;101091.00;;;;6270381;22;20160;-56
2023/07/17 09:47:37;;;;;;;6.33;3.87;;;22.30;54.20;23.00;101099.00;;;;6271245;22;20590;-56
2023/07/17 09:50:03;;;;;;;5.13;4.30;;;22.30;54.30;23.10;101101.00;;;;6244063;22;20153;-58
2023/07/17 09:52:30;;;;;;;6.53;4.50;;;22.30;54.30;23.10;101116.00;;;;6270702;22;20263;-57
2023/07/17 09:54:57;;;;;;;5.13;4.00;;;22.30;54.40;23.10;101102.00;;;;6270417;22;20598;-57
2023/07/17 09:57:35;;;;;;;5.40;3.90;;;22.30;54.50;23.10;101105.00;;;;6272993;22;20165;-57
2023/07/17 10:00:12;;;;;;;4.60;4.10;;;22.30;55.00;23.10;101108.00;;;;6271953;22;20141;-58
2023/07/17 10:03:03;;;;;;;4.33;3.93;;;22.30;55.10;23.20;101105.00;;;;6271390;22;20159;-57
2023/07/17 10:05:30;;;;;;;5.23;3.97;;;22.40;55.20;23.20;101100.00;;;;6269734;22;20141;-57
2023/07/17 10:07:56;;;;;;;4.33;3.93;;;22.40;55.20;23.20;101102.00;;;;6244921;22;20227;-56
2023/07/17 10:10:21;;;;;;;4.97;4.10;;;22.40;55.10;23.20;101109.00;;;;6270270;22;20825;-58
2023/07/17 10:12:47;;;;;;;5.33;4.37;;;22.40;55.00;23.20;101102.00;;;;6271689;22;20141;-56
2023/07/17 10:15:14;;;;;;;4.50;4.10;;;22.40;55.00;23.20;101094.00;;;;6269577;22;20149;-56
2023/07/17 10:17:39;;;;;;;4.83;4.03;;;22.40;54.90;23.20;101092.00;;;;6245368;22;20172;-57
2023/07/17 10:20:10;;;;;;;5.03;4.10;;;22.40;54.90;23.20;101100.00;;;;6245617;22;20156;-58
2023/07/17 10:22:43;;;;;;;4.90;3.87;;;22.40;54.90;23.30;101084.00;;;;6271961;22;20224;-57
2023/07/17 10:25:21;;;;;;;5.60;3.97;;;22.50;54.90;23.30;101081.00;;;;6271454;22;20129;-57
2023/07/17 10:28:07;;;;;;;4.60;4.00;;;22.50;55.00;23.30;101088.00;;;;6272694;22;20160;-57
2023/07/17 10:30:36;;;;;;;4.17;3.77;;;22.50;54.90;23.30;101086.00;;;;6270709;22;20153;-59
2023/07/17 10:33:05;;;;;;;4.57;4.17;;;22.50;55.00;23.30;101088.00;;;;6272328;22;20195;-55
2023/07/17 10:35:49;;;;;;;4.30;3.90;;;22.50;55.00;23.30;101094.00;;;;6270805;22;20493;-56
2023/07/17 10:38:29;;;;;;;4.40;4.00;;;22.50;55.10;23.30;101089.00;;;;6272276;22;20149;-56
2023/07/17 10:41:21;;;;;;;4.00;3.60;;;22.50;55.00;23.40;101088.00;;;;6272345;22;20160;-57
2023/07/17 10:43:55;;;;;;;4.73;4.30;;;22.60;55.10;23.40;101094.00;;;;6266367;22;20240;-56
2023/07/17 10:46:28;;;;;;;4.30;3.90;;;22.60;55.10;23.40;101093.00;;;;6271450;22;20190;-56